sensor_id;sensor_type;location;lat;lon;timestamp;temperature;humidity
11826;DHT22;5970;48.094;11.496;2023-04-01T00:00:51;7.20;99.90
11826;DHT22;5970;48.094;11.496;2023-04-01T00:03:18;7.10;99.90
11826;DHT22;5970;48.094;11.496;2023-04-01T00:05:45;7.00;99.90
11826;DHT22;5970;48.094;11.496;2023-04-01T00:08:12;7.10;99.90
11826;DHT22;5970;48.094;11.496;2023-04-01T00:10:38;7.10;99.90
11826;DHT22;5970;48.094;11.496;2023-04-01T00:13:05;7.20;99.90
11826;DHT22;5970;48.094;11.496;2023-04-01T00:15:32;7.20;99.90
11826;DHT22;5970;48.094;11.496;2023-04-01T00:17:59;7.20;99.90
11826;DHT22;5970;48.094;11.496;2023-04-01T00:20:27;7.20;99.90
11826;DHT22;5970;48.094;11.496;2023-04-01T00:22:53;7.30;99.90
11826;DHT22;5970;48.094;11.496;2023-04-01T00:25:21;7.20;99.90
11826;DHT22;5970;48.094;11.496;2023-04-01T00:27:48;7.20;99.90
11826;DHT22;5970;48.094;11.496;2023-04-01T00:30:15;7.20;99.90
11826;DHT22;5970;48.094;11.496;2023-04-01T00:32:42;7.20;99.90
11826;DHT22;5970;48.094;11.496;2023-04-01T00:35:09;7.30;99.90
11826;DHT22;5970;48.094;11.496;2023-04-01T00:37:36;7.20;99.90
11826;DHT22;5970;48.094;11.496;2023-04-01T00:40:04;7.30;99.90
11826;DHT22;5970;48.094;11.496;2023-04-01T00:42:31;7.20;99.90
11826;DHT22;5970;48.094;11.496;2023-04-01T00:44:58;7.10;99.90
11826;DHT22;5970;48.094;11.496;2023-04-01T00:47:25;7.20;99.90
11826;DHT22;5970;48.094;11.496;2023-04-01T00:49:53;7.20;99.90
11826;DHT22;5970;48.094;11.496;2023-04-01T00:52:21;7.20;99.90
11826;DHT22;5970;48.094;11.496;2023-04-01T00:54:49;7.30;99.90
11826;DHT22;5970;48.094;11.496;2023-04-01T00:57:23;7.30;99.90
11826;DHT22;5970;48.094;11.496;2023-04-01T00:59:54;7.40;99.90
11826;DHT22;5970;48.094;11.496;2023-04-01T01:02:21;7.40;99.90
11826;DHT22;5970;48.094;11.496;2023-04-01T01:04:48;7.60;99.90
11826;DHT22;5970;48.094;11.496;2023-04-01T01:07:28;7.50;99.90
11826;DHT22;5970;48.094;11.496;2023-04-01T01:12:32;7.50;99.90
11826;DHT22;5970;48.094;11.496;2023-04-01T01:17:31;7.50;99.90
11826;DHT22;5970;48.094;11.496;2023-04-01T01:20:33;7.60;99.90
11826;DHT22;5970;48.094;11.496;2023-04-01T01:23:04;7.70;99.90
11826;DHT22;5970;48.094;11.496;2023-04-01T01:30:56;7.70;99.90
11826;DHT22;5970;48.094;11.496;2023-04-01T01:33:48;7.70;99.90
11826;DHT22;5970;48.094;11.496;2023-04-01T01:36:12;7.60;99.90
11826;DHT22;5970;48.094;11.496;2023-04-01T01:38:40;7.70;99.90
11826;DHT22;5970;48.094;11.496;2023-04-01T01:41:07;7.70;99.90
11826;DHT22;5970;48.094;11.496;2023-04-01T01:43:38;7.70;99.90
11826;DHT22;5970;48.094;11.496;2023-04-01T01:46:10;7.60;99.90
11826;DHT22;5970;48.094;11.496;2023-04-01T01:48:38;7.70;99.90
11826;DHT22;5970;48.094;11.496;2023-04-01T01:51:06;7.70;99.90
11826;DHT22;5970;48.094;11.496;2023-04-01T01:53:33;7.60;99.90
11826;DHT22;5970;48.094;11.496;2023-04-01T01:56:00;7.60;99.90
11826;DHT22;5970;48.094;11.496;2023-04-01T01:58:43;7.60;99.90
11826;DHT22;5970;48.094;11.496;2023-04-01T02:01:21;7.70;99.90
11826;DHT22;5970;48.094;11.496;2023-04-01T02:06:16;7.70;99.90
11826;DHT22;5970;48.094;11.496;2023-04-01T02:08:49;7.70;99.90
11826;DHT22;5970;48.094;11.496;2023-04-01T02:11:18;7.80;99.90
11826;DHT22;5970;48.094;11.496;2023-04-01T02:13:55;7.70;99.90
11826;DHT22;5970;48.094;11.496;2023-04-01T02:16:24;7.60;99.90
11826;DHT22;5970;48.094;11.496;2023-04-01T02:18:53;7.80;99.90
11826;DHT22;5970;48.094;11.496;2023-04-01T02:21:22;7.70;99.90
11826;DHT22;5970;48.094;11.496;2023-04-01T02:23:50;7.70;99.90
11826;DHT22;5970;48.094;11.496;2023-04-01T02:26:18;7.70;99.90
11826;DHT22;5970;48.094;11.496;2023-04-01T02:28:45;7.70;99.90
11826;DHT22;5970;48.094;11.496;2023-04-01T02:31:12;7.60;99.90
11826;DHT22;5970;48.094;11.496;2023-04-01T02:33:40;7.70;99.90
11826;DHT22;5970;48.094;11.496;2023-04-01T02:36:10;7.80;99.90
11826;DHT22;5970;48.094;11.496;2023-04-01T02:38:37;7.70;99.90
11826;DHT22;5970;48.094;11.496;2023-04-01T02:41:03;7.80;99.90
11826;DHT22;5970;48.094;11.496;2023-04-01T02:43:31;7.80;99.90
11826;DHT22;5970;48.094;11.496;2023-04-01T02:45:58;7.70;99.90
11826;DHT22;5970;48.094;11.496;2023-04-01T02:48:24;7.70;99.90
11826;DHT22;5970;48.094;11.496;2023-04-01T02:50:51;7.60;99.90
11826;DHT22;5970;48.094;11.496;2023-04-01T02:53:18;7.60;99.90
11826;DHT22;5970;48.094;11.496;2023-04-01T02:55:44;7.60;99.90
11826;DHT22;5970;48.094;11.496;2023-04-01T02:58:11;7.60;99.90
11826;DHT22;5970;48.094;11.496;2023-04-01T03:00:37;7.60;99.90
11826;DHT22;5970;48.094;11.496;2023-04-01T03:03:04;7.60;99.90
11826;DHT22;5970;48.094;11.496;2023-04-01T03:05:31;7.60;99.90
11826;DHT22;5970;48.094;11.496;2023-04-01T03:07:58;7.50;99.90
11826;DHT22;5970;48.094;11.496;2023-04-01T03:10:25;7.40;99.90
11826;DHT22;5970;48.094;11.496;2023-04-01T03:12:51;7.40;99.90
11826;DHT22;5970;48.094;11.496;2023-04-01T03:15:18;7.40;99.90
11826;DHT22;5970;48.094;11.496;2023-04-01T03:17:44;7.40;99.90
11826;DHT22;5970;48.094;11.496;2023-04-01T03:20:13;7.30;99.90
11826;DHT22;5970;48.094;11.496;2023-04-01T03:22:39;7.30;99.90
11826;DHT22;5970;48.094;11.496;2023-04-01T03:25:08;7.40;99.90
11826;DHT22;5970;48.094;11.496;2023-04-01T03:27:36;7.30;99.90
11826;DHT22;5970;48.094;11.496;2023-04-01T03:30:03;7.40;99.90
11826;DHT22;5970;48.094;11.496;2023-04-01T03:32:30;7.30;99.90
11826;DHT22;5970;48.094;11.496;2023-04-01T03:34:56;7.30;99.90
11826;DHT22;5970;48.094;11.496;2023-04-01T03:37:23;7.20;99.90
11826;DHT22;5970;48.094;11.496;2023-04-01T03:39:50;7.20;99.90
11826;DHT22;5970;48.094;11.496;2023-04-01T03:42:17;7.10;99.90
11826;DHT22;5970;48.094;11.496;2023-04-01T03:44:43;7.10;99.90
11826;DHT22;5970;48.094;11.496;2023-04-01T03:47:10;7.10;99.90
11826;DHT22;5970;48.094;11.496;2023-04-01T03:49:36;7.10;99.90
11826;DHT22;5970;48.094;11.496;2023-04-01T03:52:03;7.10;99.90
11826;DHT22;5970;48.094;11.496;2023-04-01T03:54:30;7.10;99.90
11826;DHT22;5970;48.094;11.496;2023-04-01T03:56:56;7.10;99.90
11826;DHT22;5970;48.094;11.496;2023-04-01T03:59:24;7.10;99.90
11826;DHT22;5970;48.094;11.496;2023-04-01T04:01:50;7.20;99.90
11826;DHT22;5970;48.094;11.496;2023-04-01T04:04:17;7.00;99.90
11826;DHT22;5970;48.094;11.496;2023-04-01T04:06:44;7.10;99.90
11826;DHT22;5970;48.094;11.496;2023-04-01T04:09:10;7.10;99.90
11826;DHT22;5970;48.094;11.496;2023-04-01T04:11:37;7.00;99.90
11826;DHT22;5970;48.094;11.496;2023-04-01T04:14:03;7.00;99.90
11826;DHT22;5970;48.094;11.496;2023-04-01T04:16:30;7.00;99.90
11826;DHT22;5970;48.094;11.496;2023-04-01T04:18:57;7.00;99.90
11826;DHT22;5970;48.094;11.496;2023-04-01T04:21:24;7.10;99.90
11826;DHT22;5970;48.094;11.496;2023-04-01T04:23:50;7.10;99.90
11826;DHT22;5970;48.094;11.496;2023-04-01T04:26:17;7.20;99.90
11826;DHT22;5970;48.094;11.496;2023-04-01T04:28:44;7.20;99.90
11826;DHT22;5970;48.094;11.496;2023-04-01T04:31:11;7.20;99.90
11826;DHT22;5970;48.094;11.496;2023-04-01T04:33:37;7.20;99.90
11826;DHT22;5970;48.094;11.496;2023-04-01T04:36:04;7.10;99.90
11826;DHT22;5970;48.094;11.496;2023-04-01T04:38:31;7.10;99.90
11826;DHT22;5970;48.094;11.496;2023-04-01T04:40:58;7.10;99.90
11826;DHT22;5970;48.094;11.496;2023-04-01T04:43:24;7.10;99.90
11826;DHT22;5970;48.094;11.496;2023-04-01T04:45:51;7.10;99.90
11826;DHT22;5970;48.094;11.496;2023-04-01T04:48:18;7.10;99.90
11826;DHT22;5970;48.094;11.496;2023-04-01T04:50:49;7.20;99.90
11826;DHT22;5970;48.094;11.496;2023-04-01T04:53:16;7.20;99.90
11826;DHT22;5970;48.094;11.496;2023-04-01T04:55:44;7.10;99.90
11826;DHT22;5970;48.094;11.496;2023-04-01T04:58:10;7.20;99.90
11826;DHT22;5970;48.094;11.496;2023-04-01T05:00:37;7.30;99.90
11826;DHT22;5970;48.094;11.496;2023-04-01T05:03:04;7.30;99.90
11826;DHT22;5970;48.094;11.496;2023-04-01T05:05:31;7.50;99.90
11826;DHT22;5970;48.094;11.496;2023-04-01T05:07:58;7.50;99.90
11826;DHT22;5970;48.094;11.496;2023-04-01T05:10:24;7.60;99.90
11826;DHT22;5970;48.094;11.496;2023-04-01T05:12:51;7.60;99.90
11826;DHT22;5970;48.094;11.496;2023-04-01T05:15:18;7.60;99.90
11826;DHT22;5970;48.094;11.496;2023-04-01T05:17:44;7.70;99.90
11826;DHT22;5970;48.094;11.496;2023-04-01T05:20:14;7.60;99.90
11826;DHT22;5970;48.094;11.496;2023-04-01T05:22:41;7.80;99.90
11826;DHT22;5970;48.094;11.496;2023-04-01T05:25:08;7.70;99.90
11826;DHT22;5970;48.094;11.496;2023-04-01T05:27:34;7.70;99.90
11826;DHT22;5970;48.094;11.496;2023-04-01T05:30:01;7.60;99.90
11826;DHT22;5970;48.094;11.496;2023-04-01T05:32:28;8.90;99.90
11826;DHT22;5970;48.094;11.496;2023-04-01T05:34:54;7.70;99.90
11826;DHT22;5970;48.094;11.496;2023-04-01T05:37:21;7.80;99.90
11826;DHT22;5970;48.094;11.496;2023-04-01T05:39:49;7.80;99.90
11826;DHT22;5970;48.094;11.496;2023-04-01T05:42:15;7.70;99.90
11826;DHT22;5970;48.094;11.496;2023-04-01T05:44:42;7.70;99.90
11826;DHT22;5970;48.094;11.496;2023-04-01T05:47:09;7.80;99.90
11826;DHT22;5970;48.094;11.496;2023-04-01T05:49:35;7.80;99.90
11826;DHT22;5970;48.094;11.496;2023-04-01T05:52:02;7.80;99.90
11826;DHT22;5970;48.094;11.496;2023-04-01T05:54:28;7.80;99.90
11826;DHT22;5970;48.094;11.496;2023-04-01T05:56:56;7.90;99.90
11826;DHT22;5970;48.094;11.496;2023-04-01T05:59:22;7.90;99.90
11826;DHT22;5970;48.094;11.496;2023-04-01T06:01:49;7.90;99.90
11826;DHT22;5970;48.094;11.496;2023-04-01T06:04:16;8.00;99.90
11826;DHT22;5970;48.094;11.496;2023-04-01T06:06:43;8.10;99.60
11826;DHT22;5970;48.094;11.496;2023-04-01T06:09:28;7.90;99.30
11826;DHT22;5970;48.094;11.496;2023-04-01T06:12:14;8.00;99.60
11826;DHT22;5970;48.094;11.496;2023-04-01T06:14:59;7.90;99.40
11826;DHT22;5970;48.094;11.496;2023-04-01T06:20:16;8.00;99.90
11826;DHT22;5970;48.094;11.496;2023-04-01T06:23:14;8.10;99.90
11826;DHT22;5970;48.094;11.496;2023-04-01T06:25:51;8.20;99.10
11826;DHT22;5970;48.094;11.496;2023-04-01T06:28:30;8.10;98.70
11826;DHT22;5970;48.094;11.496;2023-04-01T06:31:06;8.20;98.70
11826;DHT22;5970;48.094;11.496;2023-04-01T06:41:58;8.40;98.30
11826;DHT22;5970;48.094;11.496;2023-04-01T06:55:02;8.70;97.80
11826;DHT22;5970;48.094;11.496;2023-04-01T06:57:36;8.70;97.60
11826;DHT22;5970;48.094;11.496;2023-04-01T07:03:00;9.00;97.00
11826;DHT22;5970;48.094;11.496;2023-04-01T07:05:32;9.00;96.70
11826;DHT22;5970;48.094;11.496;2023-04-01T07:07:59;9.10;96.80
11826;DHT22;5970;48.094;11.496;2023-04-01T07:13:29;9.30;96.60
11826;DHT22;5970;48.094;11.496;2023-04-01T07:16:41;9.30;96.40
11826;DHT22;5970;48.094;11.496;2023-04-01T07:18:48;9.30;96.30
11826;DHT22;5970;48.094;11.496;2023-04-01T07:21:22;9.20;96.20
11826;DHT22;5970;48.094;11.496;2023-04-01T07:23:49;9.10;96.00
11826;DHT22;5970;48.094;11.496;2023-04-01T07:26:21;9.10;96.20
11826;DHT22;5970;48.094;11.496;2023-04-01T07:28:48;9.10;96.40
11826;DHT22;5970;48.094;11.496;2023-04-01T07:33:48;9.30;96.20
11826;DHT22;5970;48.094;11.496;2023-04-01T07:41:43;9.40;96.20
11826;DHT22;5970;48.094;11.496;2023-04-01T07:49:26;9.70;95.20
11826;DHT22;5970;48.094;11.496;2023-04-01T07:54:43;9.80;95.50
11826;DHT22;5970;48.094;11.496;2023-04-01T08:02:20;10.10;94.20
11826;DHT22;5970;48.094;11.496;2023-04-01T08:05:00;9.90;94.60
11826;DHT22;5970;48.094;11.496;2023-04-01T08:10:23;10.10;94.20
11826;DHT22;5970;48.094;11.496;2023-04-01T08:12:55;10.20;94.30
11826;DHT22;5970;48.094;11.496;2023-04-01T08:15:26;10.40;93.70
11826;DHT22;5970;48.094;11.496;2023-04-01T08:18:03;10.80;93.30
11826;DHT22;5970;48.094;11.496;2023-04-01T08:23:07;11.10;93.10
11826;DHT22;5970;48.094;11.496;2023-04-01T08:25:37;11.60;92.40
11826;DHT22;5970;48.094;11.496;2023-04-01T08:33:37;11.50;92.20
11826;DHT22;5970;48.094;11.496;2023-04-01T08:36:10;11.90;91.80
11826;DHT22;5970;48.094;11.496;2023-04-01T08:38:46;11.90;91.40
11826;DHT22;5970;48.094;11.496;2023-04-01T08:41:19;11.80;91.70
11826;DHT22;5970;48.094;11.496;2023-04-01T08:56:41;12.40;90.90
11826;DHT22;5970;48.094;11.496;2023-04-01T09:01:59;13.00;90.20
11826;DHT22;5970;48.094;11.496;2023-04-01T09:07:12;12.70;89.10
11826;DHT22;5970;48.094;11.496;2023-04-01T09:12:36;12.30;88.30
11826;DHT22;5970;48.094;11.496;2023-04-01T09:20:42;14.30;85.00
11826;DHT22;5970;48.094;11.496;2023-04-01T09:23:26;14.00;83.90
11826;DHT22;5970;48.094;11.496;2023-04-01T09:28:33;13.70;83.80
11826;DHT22;5970;48.094;11.496;2023-04-01T09:31:08;13.20;85.40
11826;DHT22;5970;48.094;11.496;2023-04-01T09:33:47;12.60;86.40
11826;DHT22;5970;48.094;11.496;2023-04-01T09:36:43;12.00;86.60
11826;DHT22;5970;48.094;11.496;2023-04-01T09:57:30;12.60;86.00
11826;DHT22;5970;48.094;11.496;2023-04-01T10:00:10;12.70;85.50
11826;DHT22;5970;48.094;11.496;2023-04-01T10:05:18;12.60;85.20
11826;DHT22;5970;48.094;11.496;2023-04-01T10:10:32;12.20;85.30
11826;DHT22;5970;48.094;11.496;2023-04-01T10:20:46;13.00;84.80
11826;DHT22;5970;48.094;11.496;2023-04-01T10:28:24;12.90;84.70
11826;DHT22;5970;48.094;11.496;2023-04-01T10:33:26;13.60;82.30
11826;DHT22;5970;48.094;11.496;2023-04-01T10:49:44;12.90;84.40
11826;DHT22;5970;48.094;11.496;2023-04-01T10:52:31;12.40;86.90
11826;DHT22;5970;48.094;11.496;2023-04-01T10:55:24;12.20;86.60
11826;DHT22;5970;48.094;11.496;2023-04-01T10:58:11;12.20;87.60
11826;DHT22;5970;48.094;11.496;2023-04-01T11:03:42;11.30;90.00
11826;DHT22;5970;48.094;11.496;2023-04-01T11:34:57;11.00;93.70
11826;DHT22;5970;48.094;11.496;2023-04-01T11:42:43;11.40;92.90
11826;DHT22;5970;48.094;11.496;2023-04-01T11:45:28;11.30;93.50
11826;DHT22;5970;48.094;11.496;2023-04-01T11:48:07;11.30;93.80
11826;DHT22;5970;48.094;11.496;2023-04-01T12:10:40;8.20;99.90
11826;DHT22;5970;48.094;11.496;2023-04-01T12:13:16;8.20;99.90
11826;DHT22;5970;48.094;11.496;2023-04-01T12:21:36;8.30;99.90
11826;DHT22;5970;48.094;11.496;2023-04-01T12:29:05;8.10;99.90
11826;DHT22;5970;48.094;11.496;2023-04-01T12:42:21;8.00;99.90
11826;DHT22;5970;48.094;11.496;2023-04-01T12:55:35;8.00;99.90
11826;DHT22;5970;48.094;11.496;2023-04-01T12:58:19;8.00;99.90
11826;DHT22;5970;48.094;11.496;2023-04-01T13:08:37;8.00;99.90
11826;DHT22;5970;48.094;11.496;2023-04-01T13:14:01;8.10;99.90
11826;DHT22;5970;48.094;11.496;2023-04-01T13:16:31;8.10;99.90
11826;DHT22;5970;48.094;11.496;2023-04-01T13:21:53;8.20;99.90
11826;DHT22;5970;48.094;11.496;2023-04-01T13:29:40;8.00;99.90
11826;DHT22;5970;48.094;11.496;2023-04-01T13:34:59;7.80;99.90
11826;DHT22;5970;48.094;11.496;2023-04-01T13:37:41;7.70;99.90
11826;DHT22;5970;48.094;11.496;2023-04-01T13:40:19;7.70;99.90
11826;DHT22;5970;48.094;11.496;2023-04-01T13:42:48;7.70;99.90
11826;DHT22;5970;48.094;11.496;2023-04-01T13:45:23;7.60;99.90
11826;DHT22;5970;48.094;11.496;2023-04-01T13:53:10;7.80;99.90
11826;DHT22;5970;48.094;11.496;2023-04-01T13:55:53;7.80;99.90
11826;DHT22;5970;48.094;11.496;2023-04-01T14:01:10;8.10;99.90
11826;DHT22;5970;48.094;11.496;2023-04-01T14:06:28;8.40;99.90
11826;DHT22;5970;48.094;11.496;2023-04-01T14:16:50;8.20;99.90
11826;DHT22;5970;48.094;11.496;2023-04-01T14:27:59;8.20;99.90
11826;DHT22;5970;48.094;11.496;2023-04-01T14:33:06;8.30;99.90
11826;DHT22;5970;48.094;11.496;2023-04-01T14:35:46;8.30;99.90
11826;DHT22;5970;48.094;11.496;2023-04-01T14:38:27;8.30;99.90
11826;DHT22;5970;48.094;11.496;2023-04-01T14:40:58;8.30;99.90
11826;DHT22;5970;48.094;11.496;2023-04-01T14:56:36;8.10;99.90
11826;DHT22;5970;48.094;11.496;2023-04-01T14:59:39;8.10;99.90
11826;DHT22;5970;48.094;11.496;2023-04-01T15:05:15;8.00;99.90
11826;DHT22;5970;48.094;11.496;2023-04-01T15:22:43;8.90;99.90
11826;DHT22;5970;48.094;11.496;2023-04-01T15:25:23;8.90;99.90
11826;DHT22;5970;48.094;11.496;2023-04-01T15:27:57;9.10;99.90
11826;DHT22;5970;48.094;11.496;2023-04-01T15:30:35;9.10;99.90
11826;DHT22;5970;48.094;11.496;2023-04-01T15:38:20;9.40;99.90
11826;DHT22;5970;48.094;11.496;2023-04-01T15:40:53;9.50;99.90
11826;DHT22;5970;48.094;11.496;2023-04-01T15:45:57;9.50;99.90
11826;DHT22;5970;48.094;11.496;2023-04-01T15:51:28;9.70;99.90
11826;DHT22;5970;48.094;11.496;2023-04-01T16:01:53;9.90;99.90
11826;DHT22;5970;48.094;11.496;2023-04-01T16:09:31;9.80;98.60
11826;DHT22;5970;48.094;11.496;2023-04-01T16:12:15;9.70;98.40
11826;DHT22;5970;48.094;11.496;2023-04-01T16:17:53;9.80;98.20
11826;DHT22;5970;48.094;11.496;2023-04-01T16:20:27;9.70;98.30
11826;DHT22;5970;48.094;11.496;2023-04-01T16:23:02;9.70;98.70
11826;DHT22;5970;48.094;11.496;2023-04-01T16:25:33;9.70;98.50
11826;DHT22;5970;48.094;11.496;2023-04-01T16:30:48;9.70;97.90
11826;DHT22;5970;48.094;11.496;2023-04-01T16:33:25;9.70;98.00
11826;DHT22;5970;48.094;11.496;2023-04-01T16:38:47;9.50;98.20
11826;DHT22;5970;48.094;11.496;2023-04-01T16:41:33;9.50;98.30
11826;DHT22;5970;48.094;11.496;2023-04-01T16:44:18;9.50;98.30
11826;DHT22;5970;48.094;11.496;2023-04-01T16:46:46;9.40;98.00
11826;DHT22;5970;48.094;11.496;2023-04-01T16:49:16;9.30;98.10
11826;DHT22;5970;48.094;11.496;2023-04-01T16:59:35;9.20;96.90
11826;DHT22;5970;48.094;11.496;2023-04-01T17:04:48;9.20;96.60
11826;DHT22;5970;48.094;11.496;2023-04-01T17:07:25;9.30;96.90
11826;DHT22;5970;48.094;11.496;2023-04-01T17:17:58;9.40;97.20
11826;DHT22;5970;48.094;11.496;2023-04-01T17:20:43;8.00;96.50
11826;DHT22;5970;48.094;11.496;2023-04-01T17:23:20;9.30;97.20
11826;DHT22;5970;48.094;11.496;2023-04-01T17:31:07;9.30;96.40
11826;DHT22;5970;48.094;11.496;2023-04-01T17:41:42;9.30;96.50
11826;DHT22;5970;48.094;11.496;2023-04-01T17:44:19;9.30;96.50
11826;DHT22;5970;48.094;11.496;2023-04-01T17:46:56;9.20;96.60
11826;DHT22;5970;48.094;11.496;2023-04-01T17:52:24;9.20;96.90
11826;DHT22;5970;48.094;11.496;2023-04-01T18:08:10;9.10;96.30
11826;DHT22;5970;48.094;11.496;2023-04-01T18:15:45;9.20;96.70
11826;DHT22;5970;48.094;11.496;2023-04-01T18:20:52;9.10;98.00
11826;DHT22;5970;48.094;11.496;2023-04-01T18:23:28;8.90;98.10
11826;DHT22;5970;48.094;11.496;2023-04-01T18:26:02;8.80;98.80
11826;DHT22;5970;48.094;11.496;2023-04-01T18:33:34;8.50;99.60
11826;DHT22;5970;48.094;11.496;2023-04-01T18:36:07;8.40;99.80
11826;DHT22;5970;48.094;11.496;2023-04-01T18:38:36;8.50;99.90
11826;DHT22;5970;48.094;11.496;2023-04-01T18:43:52;8.40;99.90
11826;DHT22;5970;48.094;11.496;2023-04-01T18:46:27;8.30;99.90
11826;DHT22;5970;48.094;11.496;2023-04-01T18:54:13;8.30;99.90
11826;DHT22;5970;48.094;11.496;2023-04-01T18:56:43;8.30;99.90
11826;DHT22;5970;48.094;11.496;2023-04-01T18:59:25;8.20;99.90
11826;DHT22;5970;48.094;11.496;2023-04-01T19:04:42;8.20;99.90
11826;DHT22;5970;48.094;11.496;2023-04-01T19:10:00;8.20;99.90
11826;DHT22;5970;48.094;11.496;2023-04-01T19:12:29;8.20;99.90
11826;DHT22;5970;48.094;11.496;2023-04-01T19:23:12;8.30;99.90
11826;DHT22;5970;48.094;11.496;2023-04-01T19:25:50;8.30;99.90
11826;DHT22;5970;48.094;11.496;2023-04-01T19:28:21;8.40;99.90
11826;DHT22;5970;48.094;11.496;2023-04-01T19:30:51;8.50;99.90
11826;DHT22;5970;48.094;11.496;2023-04-01T19:33:26;8.40;99.90
11826;DHT22;5970;48.094;11.496;2023-04-01T19:38:37;8.50;99.90
11826;DHT22;5970;48.094;11.496;2023-04-01T19:46:14;8.40;99.90
11826;DHT22;5970;48.094;11.496;2023-04-01T19:51:27;8.30;99.90
11826;DHT22;5970;48.094;11.496;2023-04-01T19:56:39;8.30;99.90
11826;DHT22;5970;48.094;11.496;2023-04-01T19:59:13;8.20;99.90
11826;DHT22;5970;48.094;11.496;2023-04-01T20:02:20;8.30;99.90
11826;DHT22;5970;48.094;11.496;2023-04-01T20:04:37;8.10;99.90
11826;DHT22;5970;48.094;11.496;2023-04-01T20:07:07;8.10;99.90
11826;DHT22;5970;48.094;11.496;2023-04-01T20:12:06;8.10;99.90
11826;DHT22;5970;48.094;11.496;2023-04-01T20:14:40;8.00;99.90
11826;DHT22;5970;48.094;11.496;2023-04-01T20:19:35;7.90;99.90
11826;DHT22;5970;48.094;11.496;2023-04-01T20:22:04;7.80;99.90
11826;DHT22;5970;48.094;11.496;2023-04-01T20:24:41;7.80;99.90
11826;DHT22;5970;48.094;11.496;2023-04-01T20:42:57;7.70;99.90
11826;DHT22;5970;48.094;11.496;2023-04-01T20:55:56;7.80;99.90
11826;DHT22;5970;48.094;11.496;2023-04-01T21:01:40;7.80;99.90
11826;DHT22;5970;48.094;11.496;2023-04-01T21:03:45;7.90;99.90
11826;DHT22;5970;48.094;11.496;2023-04-01T21:09:09;7.90;99.90
11826;DHT22;5970;48.094;11.496;2023-04-01T21:11:43;7.90;99.90
11826;DHT22;5970;48.094;11.496;2023-04-01T21:22:31;7.90;99.90
11826;DHT22;5970;48.094;11.496;2023-04-01T21:27:48;8.00;99.90
11826;DHT22;5970;48.094;11.496;2023-04-01T21:30:19;8.00;99.90
11826;DHT22;5970;48.094;11.496;2023-04-01T21:35:33;8.10;99.90
11826;DHT22;5970;48.094;11.496;2023-04-01T21:38:19;8.10;99.90
11826;DHT22;5970;48.094;11.496;2023-04-01T21:46:07;8.00;99.90
11826;DHT22;5970;48.094;11.496;2023-04-01T21:48:43;8.10;99.90
11826;DHT22;5970;48.094;11.496;2023-04-01T22:02:00;7.90;99.90
11826;DHT22;5970;48.094;11.496;2023-04-01T22:04:38;8.00;99.90
11826;DHT22;5970;48.094;11.496;2023-04-01T22:07:20;8.10;99.90
11826;DHT22;5970;48.094;11.496;2023-04-01T22:12:17;8.10;99.90
11826;DHT22;5970;48.094;11.496;2023-04-01T22:14:52;8.10;99.90
11826;DHT22;5970;48.094;11.496;2023-04-01T22:17:33;8.00;99.90
11826;DHT22;5970;48.094;11.496;2023-04-01T22:20:06;7.90;99.90
11826;DHT22;5970;48.094;11.496;2023-04-01T22:22:51;7.90;99.90
11826;DHT22;5970;48.094;11.496;2023-04-01T22:25:21;8.00;99.90
11826;DHT22;5970;48.094;11.496;2023-04-01T22:30:38;8.10;99.90
11826;DHT22;5970;48.094;11.496;2023-04-01T22:33:10;8.20;99.90
11826;DHT22;5970;48.094;11.496;2023-04-01T22:35:40;8.10;99.90
11826;DHT22;5970;48.094;11.496;2023-04-01T22:38:52;8.20;99.90
11826;DHT22;5970;48.094;11.496;2023-04-01T22:43:39;8.10;99.90
11826;DHT22;5970;48.094;11.496;2023-04-01T22:51:37;8.10;99.90
11826;DHT22;5970;48.094;11.496;2023-04-01T22:56:40;8.10;99.90
11826;DHT22;5970;48.094;11.496;2023-04-01T23:01:48;8.00;99.90
11826;DHT22;5970;48.094;11.496;2023-04-01T23:04:16;8.20;99.90
11826;DHT22;5970;48.094;11.496;2023-04-01T23:06:48;8.20;99.90
11826;DHT22;5970;48.094;11.496;2023-04-01T23:09:17;8.10;99.90
11826;DHT22;5970;48.094;11.496;2023-04-01T23:11:53;8.00;99.90
11826;DHT22;5970;48.094;11.496;2023-04-01T23:16:50;8.10;99.90
11826;DHT22;5970;48.094;11.496;2023-04-01T23:19:24;8.10;99.90
11826;DHT22;5970;48.094;11.496;2023-04-01T23:21:59;8.20;99.90
11826;DHT22;5970;48.094;11.496;2023-04-01T23:24:30;8.10;99.90
11826;DHT22;5970;48.094;11.496;2023-04-01T23:27:05;8.10;99.90
11826;DHT22;5970;48.094;11.496;2023-04-01T23:29:37;8.00;99.90
11826;DHT22;5970;48.094;11.496;2023-04-01T23:32:13;8.00;99.90
11826;DHT22;5970;48.094;11.496;2023-04-01T23:34:39;8.00;99.90
11826;DHT22;5970;48.094;11.496;2023-04-01T23:37:12;8.00;99.90
11826;DHT22;5970;48.094;11.496;2023-04-01T23:39:42;8.00;99.90
11826;DHT22;5970;48.094;11.496;2023-04-01T23:44:40;8.00;99.90
11826;DHT22;5970;48.094;11.496;2023-04-01T23:47:08;8.00;99.90
11826;DHT22;5970;48.094;11.496;2023-04-01T23:49:37;8.00;99.90
11826;DHT22;5970;48.094;11.496;2023-04-01T23:57:11;8.10;99.90
11826;DHT22;5970;48.094;11.496;2023-04-01T23:59:38;8.10;99.90
